Mannford, Oklahoma
Current Conditions -  °F | °C
As of 4:15 PM on Friday 24 Oct 2014 (Local Time) from KOWP Reporting Station
Clear Clear  
Wind Chill: 83°   Ceiling: Unl
Heat Index: 84°   Visibility: 10mi
Dew Point: 62°   Wind: 7mph
Humidity: 47%   Direction: 190°S
Pressure: 30.03"   Gusts: NA
Location:  36.13°N, 96.35°W
Report Text: KOWP 242115Z AUTO 19006KT 10SM CLR 29/16 A3003 RMK AO2 T02860164
Loading
Personal Weather Stations






























Interactive Weather Map
Tropical Storm Tracking
New forecast layout! Learn more

10-Day Weather Forecast

Advertisements
Track Severe Weather on mobile